Bloom City, Wisconsin
Current Conditions -  °F | °C
As of 12:55 PM on Friday 28 Nov 2014 (Local Time) from KC35 Reporting Station
Overcast Overcast  
Wind Chill: -8°   Ceiling: 2500
Heat Index: -4°   Visibility: 10mi
Dew Point: -9°   Wind: 6mph
Humidity: 70%   Direction: 160°SSE
Pressure: 29.96"   Gusts: NA
Location:  43.6121°N, 90.3998°W
Report Text: KC35 281855Z AUTO 16005KT 10SM OVC025 M04/M09 A2996 RMK AO2 T10441092
Loading
Personal Weather Stations






























Interactive Weather Map New forecast layout! Learn more

10-Day Weather Forecast

Advertisements
Track Severe Weather on mobile